Time;durP1;ratioP1;P1;durP2;ratioP2;P2;SDS_P1;SDS_P2;PMS_P1;PMS_P2;Temp;Humidity;BMP_temperature;BMP_pressure;BME280_temperature;BME280_humidity;BME280_pressure;Samples;Min_cycle;Max_cycle;Signal;HPM_P1;HPM_P2
2022/12/05 00:02:22;;;;;;;;;;;;;;;2.89;81.98;99901.63;5001379;28;20005;-74
2022/12/05 00:04:47;;;;;;;;;;;;;;;3.15;81.09;99918.94;5003687;28;19928;-74
2022/12/05 00:07:12;;;;;;;;;;;;;;;2.84;81.44;99893.09;5003128;28;20011;-74
2022/12/05 00:09:38;;;;;;;;;;;;;;;2.62;82.67;99883.44;5002130;28;19917;-74
2022/12/05 00:12:03;;;;;;;;;;;;;;;2.58;82.43;99895.28;5001887;28;20475;-74
2022/12/05 00:14:28;;;;;;;;;;;;;;;2.69;81.57;99898.81;5002597;28;19917;-74
2022/12/05 00:16:53;;;;;;;;;;;;;;;3.19;80.06;99924.91;5002566;28;19964;-74
2022/12/05 00:19:19;;;;;;;;;;;;;;;2.91;80.09;99915.22;5003011;28;19960;-74
2022/12/05 00:21:44;;;;;;;;;;;;;;;2.52;81.19;99887.53;5004360;28;19960;-74
2022/12/05 00:24:11;;;;;;;;;;;;;;;2.89;80.14;99910.94;4999419;28;20472;-74
2022/12/05 00:26:36;;;;;;;;;;;;;;;3.01;79.52;99925.53;5002954;28;19960;-74
2022/12/05 00:29:01;;;;;;;;;;;;;;;2.40;82.00;99889.91;5001513;28;19917;-74
2022/12/05 00:31:26;;;;;;;;;;;;;;;3.03;80.38;99926.41;5001279;28;19926;-74
2022/12/05 00:33:52;;;;;;;;;;;;;;;3.09;80.37;99934.13;5003107;28;19925;-74
2022/12/05 00:36:25;;;;;;;;;;;;;;;3.04;79.30;99926.44;5002497;28;20008;-74
2022/12/05 00:38:50;;;;;;;;;;;;;;;2.61;81.13;99905.47;5001412;28;19932;-74
2022/12/05 00:41:19;;;;;;;;;;;;;;;2.45;81.93;99896.75;5002837;28;19921;-74
2022/12/05 00:43:45;;;;;;;;;;;;;;;2.39;83.26;99899.19;5002199;28;19925;-74
2022/12/05 00:46:15;;;;;;;;;;;;;;;2.57;83.33;99918.13;5002798;28;20296;-74
2022/12/05 00:48:40;;;;;;;;;;;;;;;2.09;85.73;99905.50;5002076;28;19917;-74
2022/12/05 00:51:06;;;;;;;;;;;;;;;2.63;84.10;99936.88;5001736;28;19922;-74
2022/12/05 00:53:32;;;;;;;;;;;;;;;2.65;85.71;99947.09;5001666;28;19929;-74
2022/12/05 00:56:04;;;;;;;;;;;;;;;2.81;84.39;99955.78;5003306;28;20273;-74
2022/12/05 00:58:29;;;;;;;;;;;;;;;2.46;86.20;99930.66;5001407;28;20395;-74
2022/12/05 01:00:55;;;;;;;;;;;;;;;2.67;86.14;99958.97;5002482;28;19921;-74
2022/12/05 01:03:20;;;;;;;;;;;;;;;3.05;85.76;99993.44;5003030;28;19961;-74
2022/12/05 01:05:45;;;;;;;;;;;;;;;2.60;87.27;99953.75;5002367;28;20067;-74
2022/12/05 01:08:10;;;;;;;;;;;;;;;3.31;85.46;100002.31;5000844;28;20376;-74
2022/12/05 01:10:35;;;;;;;;;;;;;;;2.93;86.91;99969.53;5002675;28;19932;-74
2022/12/05 01:13:01;;;;;;;;;;;;;;;3.15;85.55;99985.13;5002764;28;19922;-74
2022/12/05 01:15:26;;;;;;;;;;;;;;;3.34;85.80;99987.06;5004361;28;20028;-74
2022/12/05 01:17:51;;;;;;;;;;;;;;;3.10;84.54;99968.91;5006617;28;20070;-74
2022/12/05 01:20:16;;;;;;;;;;;;;;;3.09;83.78;99949.41;5006581;28;20055;-74
2022/12/05 01:22:42;;;;;;;;;;;;;;;2.98;84.53;99936.53;5005752;28;20406;-74
2022/12/05 01:25:07;;;;;;;;;;;;;;;2.66;85.38;99923.34;5007188;28;19922;-74
2022/12/05 01:27:32;;;;;;;;;;;;;;;3.19;83.13;99955.44;5004449;28;20051;-74
2022/12/05 01:29:57;;;;;;;;;;;;;;;2.95;83.58;99935.63;5004642;28;19928;-74
2022/12/05 01:32:23;;;;;;;;;;;;;;;2.87;84.69;99930.41;5006105;28;19925;-74
2022/12/05 01:34:48;;;;;;;;;;;;;;;2.78;84.86;99927.75;5005704;28;19925;-74
2022/12/05 01:37:13;;;;;;;;;;;;;;;2.73;84.89;99928.53;5005870;28;20402;-74
2022/12/05 01:39:38;;;;;;;;;;;;;;;2.87;85.33;99948.22;5005025;28;20467;-74
2022/12/05 01:42:04;;;;;;;;;;;;;;;2.71;86.01;99948.03;5006134;28;20012;-74
2022/12/05 01:44:29;;;;;;;;;;;;;;;2.82;85.93;99950.72;5006151;28;20014;-74
2022/12/05 01:46:54;;;;;;;;;;;;;;;2.57;86.35;99938.47;5005397;28;19925;-74
2022/12/05 01:49:26;;;;;;;;;;;;;;;2.46;86.63;99931.53;5004707;28;19922;-74
2022/12/05 01:51:55;;;;;;;;;;;;;;;2.16;88.15;99921.72;5004655;28;19936;-74
2022/12/05 01:54:21;;;;;;;;;;;;;;;2.64;88.14;99961.47;5004452;28;19929;-74
2022/12/05 01:56:51;;;;;;;;;;;;;;;2.84;88.02;99984.66;5004643;28;20302;-74
2022/12/05 01:59:16;;;;;;;;;;;;;;;2.14;90.42;99958.09;5003683;28;19917;-74
2022/12/05 02:01:41;;;;;;;;;;;;;;;2.18;90.13;99970.03;5004996;28;20371;-74
2022/12/05 02:04:06;;;;;;;;;;;;;;;2.85;89.84;100010.94;5006150;28;20690;-74
2022/12/05 02:06:32;;;;;;;;;;;;;;;2.68;90.77;100010.69;5005475;28;19918;-74
2022/12/05 02:08:57;;;;;;;;;;;;;;;2.47;91.52;100004.44;5004443;28;20024;-74
2022/12/05 02:11:22;;;;;;;;;;;;;;;2.29;91.87;99999.88;5006059;28;19957;-74
2022/12/05 02:13:47;;;;;;;;;;;;;;;2.43;91.78;100017.91;5003934;28;19921;-74
2022/12/05 02:16:19;;;;;;;;;;;;;;;3.19;90.44;100083.56;5005556;28;19929;-74
2022/12/05 02:18:56;;;;;;;;;;;;;;;3.22;91.14;100078.56;5004615;28;19936;-74
2022/12/05 02:21:27;;;;;;;;;;;;;;;3.14;92.00;100075.03;5004173;28;20019;-74
2022/12/05 02:24:07;;;;;;;;;;;;;;;3.77;90.36;100103.94;5006356;28;19960;-74
2022/12/05 02:26:44;;;;;;;;;;;;;;;3.65;88.44;100073.19;5005694;28;19929;-74
2022/12/05 02:29:17;;;;;;;;;;;;;;;3.75;87.06;100040.22;4987406;28;19975;-74
2022/12/05 02:31:42;;;;;;;;;;;;;;;2.92;88.31;99972.06;5003769;28;19925;-74
2022/12/05 02:34:08;;;;;;;;;;;;;;;3.10;86.57;99981.63;5005408;28;20806;-74
2022/12/05 02:36:36;;;;;;;;;;;;;;;3.37;85.60;99985.41;5004675;28;19928;-74
2022/12/05 02:39:10;;;;;;;;;;;;;;;3.11;86.66;99965.53;5004767;28;20683;-74
2022/12/05 02:41:40;;;;;;;;;;;;;;;2.73;86.99;99941.25;5005032;28;19917;-74
2022/12/05 02:44:17;;;;;;;;;;;;;;;3.13;85.75;99967.28;5003555;28;19925;-74
2022/12/05 02:46:43;;;;;;;;;;;;;;;3.27;84.94;99974.25;5004901;28;19944;-74
2022/12/05 02:49:09;;;;;;;;;;;;;;;3.07;85.61;99956.16;5003888;28;19921;-74
2022/12/05 02:51:37;;;;;;;;;;;;;;;3.17;84.74;99974.94;5005122;28;19921;-74
2022/12/05 02:54:05;;;;;;;;;;;;;;;3.10;85.45;99974.00;5003943;28;19933;-74
2022/12/05 02:56:31;;;;;;;;;;;;;;;2.76;85.17;99955.72;5004120;28;19928;-74
2022/12/05 02:58:56;;;;;;;;;;;;;;;2.64;86.21;99950.44;5003621;28;19921;-74
2022/12/05 03:01:22;;;;;;;;;;;;;;;3.14;87.08;99996.97;5004200;28;19918;-74
2022/12/05 03:03:47;;;;;;;;;;;;;;;2.82;87.19;99976.16;5003617;28;19918;-74
2022/12/05 03:06:14;;;;;;;;;;;;;;;3.28;85.73;99999.69;5003104;28;19928;-74
2022/12/05 03:08:44;;;;;;;;;;;;;;;3.14;86.04;99988.47;5003797;28;19928;-74
2022/12/05 03:11:09;;;;;;;;;;;;;;;2.85;86.68;99973.66;5003808;28;19926;-74
2022/12/05 03:13:38;;;;;;;;;;;;;;;3.38;84.96;100007.50;5002893;28;19967;-74
2022/12/05 03:16:05;;;;;;;;;;;;;;;3.61;84.09;100005.25;5003305;28;19964;-74
2022/12/05 03:18:32;;;;;;;;;;;;;;;2.71;85.21;99948.03;5002732;28;19917;-74
2022/12/05 03:21:12;;;;;;;;;;;;;;;3.54;82.96;99989.03;5003241;28;19921;-74
2022/12/05 03:23:37;;;;;;;;;;;;;;;3.42;82.27;99973.56;5002612;28;19921;-74
2022/12/05 03:26:19;;;;;;;;;;;;;;;2.90;82.78;99943.22;5002671;28;20394;-74
2022/12/05 03:29:03;;;;;;;;;;;;;;;3.32;81.27;99960.72;5001893;28;19921;-74
2022/12/05 03:32:01;;;;;;;;;;;;;;;3.07;81.98;99945.97;5002565;28;19925;-74
2022/12/05 03:34:38;;;;;;;;;;;;;;;2.99;82.56;99948.44;4990966;28;19976;-74
2022/12/05 03:37:06;;;;;;;;;;;;;;;3.12;82.46;99951.97;5004582;28;19917;-74
2022/12/05 03:39:31;;;;;;;;;;;;;;;3.43;80.69;99970.22;4985337;28;19922;-74
2022/12/05 03:41:56;;;;;;;;;;;;;;;3.20;80.17;99949.53;5002452;28;19921;-74
2022/12/05 03:44:23;;;;;;;;;;;;;;;3.03;80.41;99939.13;5004666;28;20013;-74
2022/12/05 03:46:52;;;;;;;;;;;;;;;3.19;80.35;99946.13;5002379;28;19921;-74
2022/12/05 03:49:36;;;;;;;;;;;;;;;2.68;81.37;99922.53;5001954;28;19996;-74
2022/12/05 03:52:08;;;;;;;;;;;;;;;2.72;81.76;99929.38;5002194;28;19921;-74
2022/12/05 03:54:34;;;;;;;;;;;;;;;3.27;80.38;99977.63;5003352;28;19921;-74
2022/12/05 03:57:23;;;;;;;;;;;;;;;3.54;79.98;99989.03;5002733;28;19925;-74
2022/12/05 04:00:00;;;;;;;;;;;;;;;3.38;78.88;99974.38;4992949;28;19921;-74
2022/12/05 04:02:27;;;;;;;;;;;;;;;3.55;76.61;99962.69;5004172;28;19929;-74
2022/12/05 04:04:54;;;;;;;;;;;;;;;2.93;76.60;99912.72;5002908;28;19918;-74
2022/12/05 04:07:19;;;;;;;;;;;;;;;3.23;75.14;99932.59;5002818;28;20063;-74
2022/12/05 04:09:46;;;;;;;;;;;;;;;2.98;75.37;99920.41;5004294;28;20020;-74
2022/12/05 04:12:13;;;;;;;;;;;;;;;3.00;75.28;99929.75;5002121;28;19922;-74
2022/12/05 04:14:40;;;;;;;;;;;;;;;3.47;73.90;99943.94;5002897;28;19965;-74
2022/12/05 04:17:07;;;;;;;;;;;;;;;2.66;75.12;99897.91;5002639;28;19926;-74
2022/12/05 04:22:35;;;;;;;;;;;;;;;3.91;69.23;99958.88;5004195;28;20628;-74
2022/12/05 04:27:51;;;;;;;;;;;;;;;3.52;66.46;99916.84;5002941;28;19931;-74
2022/12/05 04:30:19;;;;;;;;;;;;;;;3.44;64.56;99910.78;5003206;28;19922;-74
2022/12/05 04:32:57;;;;;;;;;;;;;;;3.20;64.63;99893.56;5002036;28;19921;-74
2022/12/05 04:35:49;;;;;;;;;;;;;;;3.02;63.58;99881.44;5001877;28;20023;-74
2022/12/05 04:38:16;;;;;;;;;;;;;;;2.92;63.70;99881.34;5002284;28;19926;-74
2022/12/05 04:40:50;;;;;;;;;;;;;;;3.14;64.42;99904.50;5002545;28;20005;-74
2022/12/05 04:43:15;;;;;;;;;;;;;;;3.44;61.88;99926.06;5002615;28;19925;-74
2022/12/05 04:45:40;;;;;;;;;;;;;;;3.51;60.41;99917.66;5001364;28;19924;-74
2022/12/05 04:48:08;;;;;;;;;;;;;;;3.72;56.91;99912.81;5001743;28;20364;-74
2022/12/05 04:50:34;;;;;;;;;;;;;;;3.25;58.53;99874.09;5004925;28;19925;-74
2022/12/05 04:52:59;;;;;;;;;;;;;;;2.99;59.11;99858.50;4989690;28;20776;-73
2022/12/05 04:55:24;;;;;;;;;;;;;;;3.07;58.12;99864.53;5006957;28;20461;-75
2022/12/05 04:57:50;;;;;;;;;;;;;;;3.15;57.00;99862.94;5005784;28;19926;-75
2022/12/05 05:00:15;;;;;;;;;;;;;;;3.38;55.78;99862.38;5007089;28;19918;-75
2022/12/05 05:02:45;;;;;;;;;;;;;;;3.15;55.79;99847.69;5006097;28;20450;-74
2022/12/05 05:05:10;;;;;;;;;;;;;;;3.14;55.72;99838.31;5006429;28;20327;-74
2022/12/05 05:07:43;;;;;;;;;;;;;;;4.25;50.22;99877.59;5006329;28;19917;-79
2022/12/05 05:10:09;;;;;;;;;;;;;;;4.13;53.77;99848.63;5008765;28;19941;-75
2022/12/05 05:12:34;;;;;;;;;;;;;;;3.53;57.93;99783.56;5007970;28;20061;-76
2022/12/05 05:14:59;;;;;;;;;;;;;;;3.77;56.48;99783.78;5005821;28;19917;-75
2022/12/05 05:17:25;;;;;;;;;;;;;;;3.09;60.71;99740.72;5006928;28;19922;-75
2022/12/05 05:19:50;;;;;;;;;;;;;;;3.43;57.75;99751.22;5006508;28;19921;-75
2022/12/05 05:22:15;;;;;;;;;;;;;;;3.51;56.86;99759.78;5006107;28;19954;-74
2022/12/05 05:24:40;;;;;;;;;;;;;;;3.53;56.77;99753.00;5005885;28;20442;-75
2022/12/05 05:27:06;;;;;;;;;;;;;;;3.48;56.95;99744.47;5006943;28;20398;-75
2022/12/05 05:29:31;;;;;;;;;;;;;;;3.07;60.18;99738.16;5007233;28;19960;-75
2022/12/05 05:31:56;;;;;;;;;;;;;;;3.25;59.04;99737.47;5005750;28;19926;-75
2022/12/05 05:34:22;;;;;;;;;;;;;;;3.49;57.69;99735.97;5002970;28;20052;-75
2022/12/05 05:36:50;;;;;;;;;;;;;;;3.71;57.10;99748.06;5002840;28;19925;-74
2022/12/05 05:39:15;;;;;;;;;;;;;;;3.70;58.59;99733.63;5006673;28;20406;-75
2022/12/05 05:41:41;;;;;;;;;;;;;;;3.77;59.16;99715.00;5006325;28;19922;-74
2022/12/05 05:44:06;;;;;;;;;;;;;;;3.60;61.76;99703.81;5005130;28;20044;-74
2022/12/05 05:46:32;;;;;;;;;;;;;;;3.50;61.18;99696.97;5005738;28;20021;-74
2022/12/05 05:48:57;;;;;;;;;;;;;;;3.25;63.02;99691.66;5005452;28;19968;-75
2022/12/05 05:51:26;;;;;;;;;;;;;;;3.04;63.88;99683.84;5005427;28;19917;-74
2022/12/05 05:53:52;;;;;;;;;;;;;;;3.41;59.89;99707.91;5004896;28;20416;-74
2022/12/05 05:56:18;;;;;;;;;;;;;;;4.00;57.31;99728.72;5002153;28;19927;-74
2022/12/05 05:58:43;;;;;;;;;;;;;;;3.54;62.51;99698.69;5002561;28;19941;-74
2022/12/05 06:01:10;;;;;;;;;;;;;;;3.87;60.63;99707.41;5003021;28;20381;-74
2022/12/05 06:03:35;;;;;;;;;;;;;;;4.10;60.45;99713.47;5004493;28;19928;-74
2022/12/05 06:06:01;;;;;;;;;;;;;;;3.99;63.54;99694.72;5006311;28;19921;-75
2022/12/05 06:08:30;;;;;;;;;;;;;;;3.53;67.06;99663.88;5005934;28;19913;-74
2022/12/05 06:10:55;;;;;;;;;;;;;;;3.50;66.57;99656.22;5005679;28;19931;-74
2022/12/05 06:13:20;;;;;;;;;;;;;;;3.06;67.09;99641.47;5005736;28;19925;-74
2022/12/05 06:15:46;;;;;;;;;;;;;;;2.90;66.22;99645.56;5005947;28;19918;-74
2022/12/05 06:18:11;;;;;;;;;;;;;;;3.37;62.33;99679.88;5005043;28;19923;-74
2022/12/05 06:20:36;;;;;;;;;;;;;;;3.27;63.69;99682.34;5005333;28;20311;-74
2022/12/05 06:23:01;;;;;;;;;;;;;;;3.90;60.62;99707.41;5005881;28;20364;-74
2022/12/05 06:25:27;;;;;;;;;;;;;;;3.49;65.72;99690.16;5006012;28;20364;-74
2022/12/05 06:27:52;;;;;;;;;;;;;;;3.33;66.10;99674.78;5006162;28;20040;-74
2022/12/05 06:30:17;;;;;;;;;;;;;;;3.30;66.03;99674.72;5005578;28;19921;-74
2022/12/05 06:32:42;;;;;;;;;;;;;;;3.77;63.57;99697.16;5004019;28;20479;-74
2022/12/05 06:35:14;;;;;;;;;;;;;;;3.28;66.95;99676.41;5003428;28;19932;-74
2022/12/05 06:37:40;;;;;;;;;;;;;;;3.62;64.34;99680.91;4988735;28;20292;-75
2022/12/05 06:40:05;;;;;;;;;;;;;;;3.54;65.53;99683.41;5005817;28;19918;-75
2022/12/05 06:42:30;;;;;;;;;;;;;;;3.35;67.16;99675.63;5006116;28;19940;-74
2022/12/05 06:44:56;;;;;;;;;;;;;;;3.00;68.01;99664.28;5004827;28;19917;-75
2022/12/05 06:47:21;;;;;;;;;;;;;;;3.17;64.41;99672.94;5005708;28;20012;-75
2022/12/05 06:49:46;;;;;;;;;;;;;;;3.61;61.75;99702.16;5005110;28;20008;-75
2022/12/05 06:52:11;;;;;;;;;;;;;;;3.82;62.96;99709.09;5005257;28;19983;-75
2022/12/05 06:54:36;;;;;;;;;;;;;;;3.68;65.29;99697.09;5003376;28;19926;-75
2022/12/05 06:57:02;;;;;;;;;;;;;;;3.61;65.88;99685.16;5004464;28;19918;-75
2022/12/05 06:59:27;;;;;;;;;;;;;;;3.61;66.39;99680.06;5005362;28;19929;-75
2022/12/05 07:01:52;;;;;;;;;;;;;;;3.60;66.71;99683.44;5002892;28;19926;-75
2022/12/05 07:04:24;;;;;;;;;;;;;;;3.46;67.52;99679.94;4999974;28;19921;-75
2022/12/05 07:06:50;;;;;;;;;;;;;;;3.71;66.13;99678.44;5002289;28;19924;-75
2022/12/05 07:09:17;;;;;;;;;;;;;;;3.73;66.82;99684.38;5003667;28;19926;-74
2022/12/05 07:11:42;;;;;;;;;;;;;;;3.74;67.16;99684.41;5002961;28;20024;-74
2022/12/05 07:14:08;;;;;;;;;;;;;;;3.47;69.18;99666.41;5002646;28;20007;-74
2022/12/05 07:16:34;;;;;;;;;;;;;;;3.39;68.76;99668.88;5004474;28;19918;-74
2022/12/05 07:18:59;;;;;;;;;;;;;;;3.60;67.33;99667.31;5002232;28;19944;-74
2022/12/05 07:21:24;;;;;;;;;;;;;;;3.67;68.16;99674.16;5002599;28;19921;-74
2022/12/05 07:23:49;;;;;;;;;;;;;;;3.17;71.25;99662.75;5003023;28;19928;-74
2022/12/05 07:26:16;;;;;;;;;;;;;;;3.70;67.22;99674.19;5002533;28;20334;-74
2022/12/05 07:28:41;;;;;;;;;;;;;;;3.47;70.08;99671.50;5004297;28;19921;-74
2022/12/05 07:31:08;;;;;;;;;;;;;;;3.49;69.83;99672.31;5003202;28;19918;-74
2022/12/05 07:33:33;;;;;;;;;;;;;;;3.70;68.46;99679.28;5002378;28;20012;-74
2022/12/05 07:36:05;;;;;;;;;;;;;;;3.72;70.07;99670.81;4987244;28;20020;-74
2022/12/05 07:38:31;;;;;;;;;;;;;;;3.89;69.56;99675.16;5001240;28;19975;-74
2022/12/05 07:40:56;;;;;;;;;;;;;;;3.87;71.68;99667.47;5004344;28;20307;-74
2022/12/05 07:43:21;;;;;;;;;;;;;;;3.40;75.62;99640.03;5003066;28;19924;-74
2022/12/05 07:45:46;;;;;;;;;;;;;;;3.53;73.91;99641.78;5002938;28;20547;-74
2022/12/05 07:48:12;;;;;;;;;;;;;;;3.81;72.45;99656.41;5001967;28;19921;-74
2022/12/05 07:50:37;;;;;;;;;;;;;;;3.64;74.19;99641.88;5003752;28;20055;-74
2022/12/05 07:53:02;;;;;;;;;;;;;;;3.71;73.75;99646.16;5003006;28;19925;-74
2022/12/05 07:55:27;;;;;;;;;;;;;;;3.70;74.56;99641.94;5004477;28;19966;-74
2022/12/05 07:57:53;;;;;;;;;;;;;;;3.68;74.85;99641.06;5003890;28;19921;-74
2022/12/05 08:00:18;;;;;;;;;;;;;;;3.77;74.63;99646.22;5002640;28;20662;-74
2022/12/05 08:02:43;;;;;;;;;;;;;;;3.83;74.99;99636.88;5002020;28;19980;-74
2022/12/05 08:05:09;;;;;;;;;;;;;;;3.85;75.49;99653.03;5003668;28;20523;-74
2022/12/05 08:07:34;;;;;;;;;;;;;;;3.52;77.91;99624.81;5004533;28;20512;-74
2022/12/05 08:09:59;;;;;;;;;;;;;;;3.81;75.52;99646.22;5002934;28;20387;-74
2022/12/05 08:12:24;;;;;;;;;;;;;;;3.87;76.10;99647.09;5003586;28;19929;-74
2022/12/05 08:14:49;;;;;;;;;;;;;;;3.59;78.06;99635.91;5004018;28;19932;-74
2022/12/05 08:17:15;;;;;;;;;;;;;;;3.95;75.92;99655.66;5003545;28;19921;-74
2022/12/05 08:19:40;;;;;;;;;;;;;;;3.93;77.62;99648.84;5003836;28;20016;-74
2022/12/05 08:22:05;;;;;;;;;;;;;;;3.87;78.28;99646.25;5003656;28;19988;-74
2022/12/05 08:24:30;;;;;;;;;;;;;;;3.67;79.85;99630.84;5004962;28;19928;-74
2022/12/05 08:26:56;;;;;;;;;;;;;;;3.70;79.14;99638.53;5007881;28;19932;-74
2022/12/05 08:29:21;;;;;;;;;;;;;;;3.61;79.37;99631.69;5006550;28;20019;-74
2022/12/05 08:31:47;;;;;;;;;;;;;;;3.84;77.37;99647.09;5006446;28;19926;-74
2022/12/05 08:34:13;;;;;;;;;;;;;;;3.89;77.68;99642.03;5005690;28;20025;-74
2022/12/05 08:36:38;;;;;;;;;;;;;;;4.02;77.91;99650.59;5005564;28;20380;-74
2022/12/05 08:39:04;;;;;;;;;;;;;;;4.13;78.42;99652.34;5006281;28;19924;-74
2022/12/05 08:41:29;;;;;;;;;;;;;;;4.15;80.52;99647.22;5005321;28;20008;-74
2022/12/05 08:43:55;;;;;;;;;;;;;;;4.19;81.69;99648.97;4988834;28;20080;-74
2022/12/05 08:46:21;;;;;;;;;;;;;;;4.14;83.01;99643.84;5007365;28;19936;-73
2022/12/05 08:48:46;;;;;;;;;;;;;;;4.08;84.54;99641.28;5005084;28;19975;-73
2022/12/05 08:51:12;;;;;;;;;;;;;;;3.95;85.32;99635.25;5007287;28;19921;-73
2022/12/05 08:53:37;;;;;;;;;;;;;;;4.01;84.49;99639.53;5006089;28;19918;-73
2022/12/05 08:56:03;;;;;;;;;;;;;;;4.07;84.62;99629.38;5004587;28;19929;-73
2022/12/05 08:58:28;;;;;;;;;;;;;;;4.22;84.22;99633.69;4998297;28;19968;-74
2022/12/05 09:00:53;;;;;;;;;;;;;;;4.26;85.17;99634.53;5005915;28;19921;-74
2022/12/05 09:03:19;;;;;;;;;;;;;;;4.34;85.49;99632.88;5005501;28;19921;-74
2022/12/05 09:05:44;;;;;;;;;;;;;;;4.41;86.26;99629.50;5007575;28;19918;-75
2022/12/05 09:08:09;;;;;;;;;;;;;;;4.50;86.54;99624.41;5005842;28;20005;-74
2022/12/05 09:10:36;;;;;;;;;;;;;;;4.34;88.54;99615.03;5007224;28;20331;-74
2022/12/05 09:13:01;;;;;;;;;;;;;;;4.51;87.72;99623.56;5006824;28;19929;-74
2022/12/05 09:15:26;;;;;;;;;;;;;;;4.51;88.90;99615.91;5006244;28;19917;-74
2022/12/05 09:17:51;;;;;;;;;;;;;;;4.49;89.52;99611.66;5006608;28;19917;-74
2022/12/05 09:20:17;;;;;;;;;;;;;;;4.53;89.87;99609.13;5004766;28;19933;-74
2022/12/05 09:22:42;;;;;;;;;;;;;;;4.68;90.14;99615.13;5007097;28;19914;-74
2022/12/05 09:25:08;;;;;;;;;;;;;;;4.74;91.78;99617.66;5005091;28;20622;-74
2022/12/05 09:27:33;;;;;;;;;;;;;;;4.40;94.91;99592.94;5004769;28;19929;-74
2022/12/05 09:29:58;;;;;;;;;;;;;;;4.69;93.28;99593.84;5005899;28;20083;-74
2022/12/05 09:32:23;;;;;;;;;;;;;;;4.72;94.78;99593.84;5005730;28;19999;-74
2022/12/05 09:34:48;;;;;;;;;;;;;;;4.91;95.09;99585.38;5007202;28;19944;-74
2022/12/05 09:37:14;;;;;;;;;;;;;;;4.97;96.60;99584.50;5005477;28;19917;-74
2022/12/05 09:39:39;;;;;;;;;;;;;;;5.09;97.66;99579.41;5003500;28;20008;-73
2022/12/05 09:42:06;;;;;;;;;;;;;;;4.90;100.00;99572.59;5003687;28;19972;-73
2022/12/05 09:44:50;;;;;;;;;;;;;;;5.11;100.00;99571.72;5006250;28;19989;-74
2022/12/05 09:47:22;;;;;;;;;;;;;;;5.10;100.00;99559.81;5006712;28;19925;-74
2022/12/05 09:50:11;;;;;;;;;;;;;;;4.65;100.00;99536.84;5003433;28;19955;-74
2022/12/05 09:52:43;;;;;;;;;;;;;;;4.95;100.00;99546.22;5002543;28;19963;-74
2022/12/05 09:55:18;;;;;;;;;;;;;;;4.90;100.00;99540.25;5004837;28;19917;-74
2022/12/05 09:57:54;;;;;;;;;;;;;;;4.97;100.00;99534.31;5004521;28;19972;-74
2022/12/05 10:00:20;;;;;;;;;;;;;;;5.16;100.00;99534.31;5002602;28;19918;-74
2022/12/05 10:02:45;;;;;;;;;;;;;;;5.24;100.00;99530.00;5004682;28;20295;-74
2022/12/05 10:05:13;;;;;;;;;;;;;;;5.27;100.00;99522.38;5006667;28;20554;-73
2022/12/05 10:07:44;;;;;;;;;;;;;;;5.33;100.00;99516.38;5004642;28;19917;-74
2022/12/05 10:10:21;;;;;;;;;;;;;;;4.94;100.00;99503.69;5005430;28;20386;-74
2022/12/05 10:12:56;;;;;;;;;;;;;;;5.29;100.00;99507.91;5005796;28;19917;-73
2022/12/05 10:15:21;;;;;;;;;;;;;;;5.32;100.00;99510.44;5006247;28;19968;-73
2022/12/05 10:17:49;;;;;;;;;;;;;;;5.41;100.00;99507.84;5005639;28;20554;-73
2022/12/05 10:20:15;;;;;;;;;;;;;;;5.49;100.00;99501.88;5005258;28;19925;-73
2022/12/05 10:22:52;;;;;;;;;;;;;;;5.53;100.00;99503.56;5005479;28;19975;-73
2022/12/05 10:25:18;;;;;;;;;;;;;;;5.66;100.00;99497.56;5004613;28;20003;-73
2022/12/05 10:27:50;;;;;;;;;;;;;;;5.72;100.00;99494.09;5002911;28;19996;-73
2022/12/05 10:30:20;;;;;;;;;;;;;;;5.77;100.00;99490.69;5005433;28;19980;-73
2022/12/05 10:33:01;;;;;;;;;;;;;;;5.75;100.00;99484.72;5005668;28;19999;-73
2022/12/05 10:35:36;;;;;;;;;;;;;;;5.74;100.00;99482.16;5004255;28;19953;-73
2022/12/05 10:38:02;;;;;;;;;;;;;;;5.90;100.00;99482.94;5001687;28;19925;-73
2022/12/05 10:40:32;;;;;;;;;;;;;;;5.99;100.00;99488.88;5003427;28;20303;-73
2022/12/05 10:42:57;;;;;;;;;;;;;;;6.05;100.00;99482.91;5003968;28;19914;-74
2022/12/05 10:45:23;;;;;;;;;;;;;;;6.03;100.00;99476.94;5005039;28;19992;-74
2022/12/05 10:47:49;;;;;;;;;;;;;;;5.97;100.00;99471.84;5000339;28;20358;-73
2022/12/05 10:50:34;;;;;;;;;;;;;;;5.82;100.00;99462.56;5002007;28;19917;-73
2022/12/05 10:53:02;;;;;;;;;;;;;;;5.62;100.00;99454.97;5002749;28;20351;-73
2022/12/05 10:55:33;;;;;;;;;;;;;;;5.39;100.00;99443.16;4999544;28;19967;-73
2022/12/05 10:58:09;;;;;;;;;;;;;;;5.15;100.00;99445.78;5002765;28;19995;-73
2022/12/05 11:00:34;;;;;;;;;;;;;;;5.00;100.00;99447.53;5001991;28;19963;-73
2022/12/05 11:03:01;;;;;;;;;;;;;;;5.07;100.00;99458.56;5004211;28;19921;-73
2022/12/05 11:05:26;;;;;;;;;;;;;;;4.85;100.00;99457.75;5002974;28;19925;-73
2022/12/05 11:07:51;;;;;;;;;;;;;;;4.90;100.00;99478.16;5003267;28;19924;-73
2022/12/05 11:10:18;;;;;;;;;;;;;;;5.10;100.00;99489.19;5002998;28;19921;-73
2022/12/05 11:12:44;;;;;;;;;;;;;;;4.91;100.00;99488.38;5004870;28;19914;-73
2022/12/05 11:15:15;;;;;;;;;;;;;;;4.74;100.00;99487.53;5004006;28;20377;-73
2022/12/05 11:17:40;;;;;;;;;;;;;;;4.74;100.00;99495.19;5004744;28;19927;-73
2022/12/05 11:20:15;;;;;;;;;;;;;;;4.32;100.00;99492.63;4986942;28;19913;-73
2022/12/05 11:22:40;;;;;;;;;;;;;;;4.45;100.00;99513.91;5004700;28;20003;-73
2022/12/05 11:25:22;;;;;;;;;;;;;;;4.37;100.00;99530.88;5003048;28;20534;-73
2022/12/05 11:27:47;;;;;;;;;;;;;;;4.69;98.90;99558.13;5002997;28;20011;-73
2022/12/05 11:30:12;;;;;;;;;;;;;;;4.61;98.42;99561.53;5002448;28;19964;-73
2022/12/05 11:32:37;;;;;;;;;;;;;;;4.36;98.68;99559.78;5003227;28;19924;-73
2022/12/05 11:35:12;;;;;;;;;;;;;;;4.63;95.55;99573.41;5001170;28;19917;-73
2022/12/05 11:37:43;;;;;;;;;;;;;;;4.35;97.17;99569.13;5003879;28;19968;-73
2022/12/05 11:40:13;;;;;;;;;;;;;;;4.15;95.88;99571.63;5003783;28;20163;-73
2022/12/05 11:42:49;;;;;;;;;;;;;;;3.86;94.09;99578.31;5004021;28;19925;-73
2022/12/05 11:45:14;;;;;;;;;;;;;;;4.03;89.94;99597.06;5002792;28;19960;-73
2022/12/05 11:47:49;;;;;;;;;;;;;;;4.17;88.15;99610.72;5004217;28;19960;-73
2022/12/05 11:50:29;;;;;;;;;;;;;;;4.28;87.52;99622.66;5003891;28;20331;-73
2022/12/05 11:52:58;;;;;;;;;;;;;;;4.17;88.33;99620.94;5004466;28;19995;-73
2022/12/05 11:55:23;;;;;;;;;;;;;;;3.91;89.14;99609.75;5003002;28;19918;-73
2022/12/05 11:57:58;;;;;;;;;;;;;;;3.81;87.56;99620.72;5004126;28;19975;-73
2022/12/05 12:00:24;;;;;;;;;;;;;;;3.82;85.68;99617.38;5001949;28;19909;-73
2022/12/05 12:02:55;;;;;;;;;;;;;;;3.88;83.42;99625.03;5004537;28;19969;-73
2022/12/05 12:05:29;;;;;;;;;;;;;;;3.85;82.27;99637.75;5004650;28;19913;-73
2022/12/05 12:08:12;;;;;;;;;;;;;;;3.65;82.27;99641.06;5004581;28;19913;-73
2022/12/05 12:10:47;;;;;;;;;;;;;;;3.33;80.36;99639.13;5003667;28;20000;-73
2022/12/05 12:13:24;;;;;;;;;;;;;;;3.29;76.03;99656.91;5004447;28;19924;-73
2022/12/05 12:15:58;;;;;;;;;;;;;;;3.20;72.62;99667.88;5004433;28;19918;-73
2022/12/05 12:18:44;;;;;;;;;;;;;;;3.28;68.17;99694.22;5003675;28;20548;-73
2022/12/05 12:21:16;;;;;;;;;;;;;;;3.26;66.68;99707.78;4992301;28;19924;-73
2022/12/05 12:24:00;;;;;;;;;;;;;;;3.16;65.73;99711.09;5004266;28;19917;-73
2022/12/05 12:26:34;;;;;;;;;;;;;;;2.96;64.71;99723.63;5002297;28;19932;-73
2022/12/05 12:29:17;;;;;;;;;;;;;;;3.09;60.77;99740.72;5004187;28;19971;-73
2022/12/05 12:31:49;;;;;;;;;;;;;;;3.05;60.30;99749.16;5004165;28;19925;-73
2022/12/05 12:34:33;;;;;;;;;;;;;;;3.13;59.37;99763.66;5002598;28;19968;-74
2022/12/05 12:37:08;;;;;;;;;;;;;;;3.03;60.51;99766.09;5003646;28;19929;-74
2022/12/05 12:39:36;;;;;;;;;;;;;;;3.04;59.71;99765.28;5001456;28;20370;-73
2022/12/05 12:42:12;;;;;;;;;;;;;;;2.89;59.99;99759.16;5004078;28;19960;-74
2022/12/05 12:44:37;;;;;;;;;;;;;;;2.82;60.07;99762.47;5002516;28;19921;-73
2022/12/05 12:47:03;;;;;;;;;;;;;;;2.73;58.97;99768.31;5003988;28;19913;-73
2022/12/05 12:49:37;;;;;;;;;;;;;;;2.60;59.24;99765.59;5001823;28;19940;-73
2022/12/05 12:52:04;;;;;;;;;;;;;;;2.65;57.79;99779.25;5002249;28;20554;-73
2022/12/05 12:54:39;;;;;;;;;;;;;;;2.82;57.20;99793.00;5003205;28;19939;-73
2022/12/05 12:57:11;;;;;;;;;;;;;;;3.02;56.89;99797.47;5001718;28;19944;-74
2022/12/05 12:59:39;;;;;;;;;;;;;;;2.97;57.70;99796.56;5001779;28;19921;-74
2022/12/05 13:02:07;;;;;;;;;;;;;;;3.12;57.74;99801.81;5002106;28;19917;-74
2022/12/05 13:04:45;;;;;;;;;;;;;;;3.33;57.04;99803.72;5003232;28;19972;-74
2022/12/05 13:07:15;;;;;;;;;;;;;;;3.34;58.33;99798.66;5001395;28;20387;-74